Terminal Aerodrome Forecast
Issued by NWS Sterling, VA

Home | Current Version | Previous Version | Text Only | Print | Product List | Glossary On
Versions: 1 2 3 4 5 6 7 8 9 10 11 12 13 14 15 16
000
FTUS41 KLWX 291139
TAFMRB
TAF
KMRB 291139Z 2912/3012 VRB03KT 3SM BR SCT250
     FM291400 17006KT P6SM BKN150
     FM300100 VRB04KT P6SM -SHRA OVC050=

USA.gov is the U.S. government's official web portal to all federal, state and local government web resources and services.